Time;durP1;ratioP1;P1;durP2;ratioP2;P2;SDS_P1;SDS_P2;PMS_P1;PMS_P2;Temp;Humidity;BMP_temperature;BMP_pressure;BME280_temperature;BME280_humidity;BME280_pressure;Samples;Min_cycle;Max_cycle;Signal;HPM_P1;HPM_P2
2023/08/17 00:00:18;;;;;;;5.05;3.78;;;;;;;20.77;100.00;97826.59;18231104;32;20063;-56
2023/08/17 00:10:21;;;;;;;4.03;3.62;;;;;;;20.68;100.00;97822.28;18237886;32;20455;-56
2023/08/17 00:20:24;;;;;;;4.97;3.67;;;;;;;20.61;100.00;97818.12;18241201;32;20098;-56
2023/08/17 00:30:27;;;;;;;6.15;4.00;;;;;;;20.55;100.00;97826.88;18241121;32;20045;-56
2023/08/17 00:40:29;;;;;;;7.82;4.40;;;;;;;20.44;100.00;97821.75;18238862;32;20067;-56
2023/08/17 00:50:32;;;;;;;5.10;3.50;;;;;;;20.36;100.00;97822.59;18239662;32;20086;-56
2023/08/17 01:00:35;;;;;;;4.10;3.47;;;;;;;20.30;100.00;97824.75;18239286;32;20451;-56
2023/08/17 01:10:52;;;;;;;4.12;3.72;;;;;;;20.23;100.00;97829.16;18238353;32;20085;-55
2023/08/17 01:20:56;;;;;;;4.57;3.75;;;;;;;20.15;100.00;97833.53;18237963;32;20058;-56
2023/08/17 01:31:24;;;;;;;4.82;3.87;;;;;;;20.06;100.00;97846.47;18236924;32;20085;-56
2023/08/17 01:41:28;;;;;;;5.97;3.50;;;;;;;20.00;100.00;97845.06;18236280;32;20430;-56
2023/08/17 01:51:31;;;;;;;4.25;3.60;;;;;;;19.90;100.00;97832.50;18223076;32;20479;-56
2023/08/17 02:01:33;;;;;;;4.00;3.37;;;;;;;19.82;100.00;97830.59;18235579;32;20110;-56
2023/08/17 02:11:36;;;;;;;3.83;3.00;;;;;;;19.75;100.00;97831.06;18235169;32;20506;-56
2023/08/17 02:21:39;;;;;;;4.40;3.10;;;;;;;19.64;100.00;97825.91;18236072;32;20057;-56
2023/08/17 02:31:42;;;;;;;5.03;3.40;;;;;;;19.58;100.00;97826.41;18234796;32;20366;-55
2023/08/17 02:41:49;;;;;;;3.23;2.93;;;;;;;19.53;100.00;97829.31;18234891;32;20343;-55
2023/08/17 02:51:51;;;;;;;6.30;3.08;;;;;;;19.50;100.00;97817.06;18234595;32;20113;-55
2023/08/17 03:01:54;;;;;;;4.15;3.08;;;;;;;19.54;100.00;97831.75;18232845;32;20107;-56
2023/08/17 03:11:57;;;;;;;3.72;2.95;;;;;;;19.62;100.00;97825.44;18233429;32;20088;-56
2023/08/17 03:21:59;;;;;;;3.70;3.23;;;;;;;19.71;100.00;97819.13;18233728;32;20089;-56
2023/08/17 03:32:02;;;;;;;3.40;2.70;;;;;;;19.74;100.00;97813.78;18232506;32;20435;-57
2023/08/17 03:42:04;;;;;;;3.10;2.70;;;;;;;19.80;100.00;97806.19;18231594;32;20062;-56
2023/08/17 03:52:06;;;;;;;3.77;3.07;;;;;;;19.82;100.00;97823.16;18230487;32;20095;-56
2023/08/17 04:02:09;;;;;;;7.13;4.97;;;;;;;19.79;100.00;97826.53;18231588;32;20054;-56
2023/08/17 04:12:12;;;;;;;6.93;6.12;;;;;;;19.82;100.00;97836.87;18231002;32;20108;-56
2023/08/17 04:22:15;;;;;;;7.73;5.83;;;;;;;19.83;100.00;97834.94;18229896;32;20077;-56
2023/08/17 04:32:18;;;;;;;9.97;7.43;;;;;;;19.77;100.00;97839.75;18229899;32;20547;-56
2023/08/17 04:42:20;;;;;;;9.07;6.57;;;;;;;19.80;100.00;97831.72;18229598;32;20058;-56
2023/08/17 04:52:23;;;;;;;10.27;7.90;;;;;;;19.79;100.00;97827.31;18230421;32;20050;-56
2023/08/17 05:02:26;;;;;;;13.62;9.32;;;;;;;19.73;100.00;97834.09;18291245;32;20058;-56
2023/08/17 05:12:29;;;;;;;11.43;7.90;;;;;;;19.70;100.00;97829.28;18225272;32;20151;-56
2023/08/17 05:22:32;;;;;;;16.07;10.43;;;;;;;19.71;100.00;97835.59;18237444;32;20088;-57
2023/08/17 05:32:35;;;;;;;13.88;9.23;;;;;;;19.73;100.00;97833.31;18224352;32;20059;-57
2023/08/17 05:42:38;;;;;;;17.57;10.67;;;;;;;19.72;100.00;97838.00;18237329;32;20418;-56
2023/08/17 05:52:42;;;;;;;;;;;;;;;19.78;100.00;97852.34;18237325;32;20084;-56
2023/08/17 06:02:49;;;;;;;18.47;10.30;;;;;;;19.82;100.00;97867.06;18236888;32;19962;-56
2023/08/17 06:12:57;;;;;;;13.02;9.20;;;;;;;19.88;100.00;97878.66;18235203;32;20070;-56
2023/08/17 06:23:00;;;;;;;11.10;8.20;;;;;;;19.91;100.00;97888.97;18235944;32;20366;-56
2023/08/17 06:33:04;;;;;;;13.60;8.57;;;;;;;19.96;100.00;97889.59;18235802;32;20378;-56
2023/08/17 06:43:40;;;;;;;12.57;8.85;;;;;;;20.11;100.00;97895.72;18233618;32;20380;-56
2023/08/17 06:53:50;;;;;;;11.35;8.00;;;;;;;20.21;100.00;97897.31;18234439;32;20073;-56
2023/08/17 07:04:07;;;;;;;15.27;9.48;;;;;;;20.16;100.00;97901.03;18232823;32;20062;-56
2023/08/17 07:14:12;;;;;;;;;;;;;;;20.27;100.00;97907.78;18231942;32;20098;-55
2023/08/17 07:24:25;;;;;;;10.90;8.02;;;;;;;20.31;100.00;97903.25;18233657;32;19998;-56
2023/08/17 07:34:39;;;;;;;10.45;6.53;;;;;;;20.38;100.00;97921.13;18231515;32;20050;-56
2023/08/17 07:44:44;;;;;;;10.73;7.87;;;;;;;20.67;100.00;97925.09;18230883;32;20058;-56
2023/08/17 07:54:49;;;;;;;8.05;6.40;;;;;;;20.96;100.00;97927.84;18231599;32;20386;-56
2023/08/17 08:04:54;;;;;;;7.87;6.93;;;;;;;21.32;100.00;97940.25;18218059;32;20059;-56
2023/08/17 08:14:58;;;;;;;9.68;7.10;;;;;;;21.56;100.00;97941.56;18230744;32;20374;-57
2023/08/17 08:25:02;;;;;;;8.68;6.90;;;;;;;21.74;100.00;97947.72;18230599;32;20355;-56
2023/08/17 08:35:07;;;;;;;8.07;6.87;;;;;;;21.80;100.00;97956.56;18239688;32;20055;-56
2023/08/17 08:45:11;;;;;;;10.82;7.50;;;;;;;21.84;100.00;97952.00;18240195;32;20055;-56
2023/08/17 08:55:23;;;;;;;8.27;7.10;;;;;;;21.87;100.00;97975.28;18239786;32;20046;-56
2023/08/17 09:05:27;;;;;;;8.88;6.75;;;;;;;21.87;100.00;97986.31;18239461;32;20074;-56
2023/08/17 09:15:32;;;;;;;9.77;7.60;;;;;;;22.00;100.00;97974.22;18238810;32;20106;-56
2023/08/17 09:25:39;;;;;;;8.27;7.22;;;;;;;22.08;100.00;97964.28;18238841;32;20477;-57
2023/08/17 09:35:52;;;;;;;9.63;7.03;;;;;;;22.55;100.00;97960.41;18238119;32;20055;-56
2023/08/17 09:46:04;;;;;;;8.63;6.87;;;;;;;22.93;100.00;97954.56;18237133;32;20067;-56
2023/08/17 09:56:10;;;;;;;10.48;7.82;;;;;;;23.75;100.00;97932.56;18237335;32;20055;-56
2023/08/17 10:06:22;;;;;;;7.62;6.25;;;;;;;24.22;100.00;97934.69;18236810;32;20077;-56
2023/08/17 10:16:45;;;;;;;6.80;6.10;;;;;;;24.64;100.00;97916.81;18236346;32;20071;-55
2023/08/17 10:26:49;;;;;;;7.85;6.00;;;;;;;25.18;100.00;97895.94;18235962;32;20054;-56
2023/08/17 10:36:58;;;;;;;9.38;6.32;;;;;;;25.82;100.00;97890.16;18234072;32;20069;-57
2023/08/17 10:47:20;;;;;;;10.57;5.75;;;;;;;26.45;100.00;97885.38;18234841;32;20081;-56
2023/08/17 10:57:36;;;;;;;6.00;5.40;;;;;;;26.72;100.00;97858.50;18233410;32;20113;-56
2023/08/17 11:07:45;;;;;;;5.78;4.78;;;;;;;27.31;100.00;97838.69;18233730;32;20371;-56
2023/08/17 11:17:48;;;;;;;6.07;5.07;;;;;;;27.71;100.00;97826.09;18232631;32;20065;-57
2023/08/17 11:27:51;;;;;;;7.43;5.03;;;;;;;28.18;100.00;97818.22;18233050;32;20075;-57
2023/08/17 11:37:55;;;;;;;4.75;4.25;;;;;;;28.72;100.00;97808.34;18231329;32;20050;-57
2023/08/17 11:47:58;;;;;;;7.07;4.80;;;;;;;28.54;100.00;97785.13;18230251;32;20154;-57
2023/08/17 11:58:02;;;;;;;6.30;4.22;;;;;;;28.77;100.00;97765.44;18231654;32;20066;-57
2023/08/17 12:08:14;;;;;;;8.93;4.37;;;;;;;29.24;100.00;97755.34;18227924;32;20073;-56
2023/08/17 12:18:17;;;;;;;6.03;3.72;;;;;;;29.46;96.94;97749.78;18240392;32;20059;-57
2023/08/17 12:28:20;;;;;;;9.32;5.15;;;;;;;29.45;95.79;97739.06;18240819;32;20070;-57
2023/08/17 13:00:43;;;;;;;6.00;3.72;;;;;;;30.06;89.71;97723.19;18238980;32;20105;-56
2023/08/17 13:10:47;;;;;;;5.60;3.70;;;;;;;30.81;79.96;97727.06;18237469;32;20438;-56
2023/08/17 13:20:50;;;;;;;9.15;4.20;;;;;;;31.19;72.64;97734.91;18238210;32;20054;-56
2023/08/17 13:30:53;;;;;;;6.43;4.03;;;;;;;31.74;63.57;97739.00;18238373;32;20059;-56
2023/08/17 13:40:57;;;;;;;5.55;3.33;;;;;;;32.03;59.21;97747.97;18236399;32;20058;-57
2023/08/17 13:51:04;;;;;;;8.90;4.12;;;;;;;32.44;53.39;97738.03;18236315;32;20073;-57
2023/08/17 14:01:11;;;;;;;6.95;3.55;;;;;;;31.86;53.85;97740.50;18236804;32;20050;-56
2023/08/17 14:11:15;;;;;;;11.88;3.67;;;;;;;31.64;58.20;97728.69;18236425;32;20073;-57
2023/08/17 14:21:19;;;;;;;4.75;3.47;;;;;;;31.33;56.92;97726.47;18235868;32;20469;-57
2023/08/17 14:31:49;;;;;;;8.27;3.65;;;;;;;32.08;59.28;97725.16;18235448;32;20066;-57
2023/08/17 14:41:57;;;;;;;5.15;3.60;;;;;;;32.19;51.10;97702.72;18234288;32;20046;-57
2023/08/17 14:52:03;;;;;;;6.07;3.58;;;;;;;32.59;51.00;97714.28;18234378;32;20046;-57
2023/08/17 15:13:32;;;;;;;6.40;3.92;;;;;;;31.53;51.90;97735.09;18233846;32;20385;-57
2023/08/17 15:23:36;;;;;;;5.80;3.87;;;;;;;30.74;56.61;97725.09;18233086;32;20462;-57
2023/08/17 15:33:40;;;;;;;6.22;3.30;;;;;;;29.92;60.58;97728.78;18232677;32;20433;-56
2023/08/17 15:43:43;;;;;;;6.43;4.05;;;;;;;29.64;63.71;97699.66;18232080;32;20070;-56
2023/08/17 15:53:48;;;;;;;6.93;4.07;;;;;;;29.56;65.33;97675.78;18231513;32;20073;-56
2023/08/17 16:03:52;;;;;;;5.53;3.08;;;;;;;29.50;60.40;97646.75;18230245;32;20093;-57
2023/08/17 16:14:00;;;;;;;5.20;3.87;;;;;;;29.53;65.77;97643.16;18231264;32;20063;-57
2023/08/17 16:24:03;;;;;;;4.25;3.70;;;;;;;29.65;70.68;97634.41;18230450;32;20446;-57
2023/08/17 16:34:06;;;;;;;8.27;3.42;;;;;;;29.49;65.24;97632.03;18229919;32;20116;-57
2023/08/17 16:44:10;;;;;;;6.18;3.37;;;;;;;29.29;61.27;97637.19;18229764;32;20059;-57
2023/08/17 16:54:14;;;;;;;6.85;2.97;;;;;;;29.21;63.57;97633.56;18236467;32;20042;-57
2023/08/17 17:04:18;;;;;;;5.55;3.10;;;;;;;30.24;54.02;97624.78;18239439;32;20428;-57
2023/08/17 17:14:22;;;;;;;6.18;3.08;;;;;;;29.78;54.73;97625.63;18239039;32;20343;-57
2023/08/17 17:24:25;;;;;;;5.30;2.67;;;;;;;28.94;54.93;97615.63;18238495;32;20067;-57
2023/08/17 17:34:29;;;;;;;3.00;2.25;;;;;;;28.46;55.57;97617.41;18238042;32;20366;-57
2023/08/17 17:44:32;;;;;;;2.67;1.95;;;;;;;28.12;55.67;97619.62;18237566;32;20085;-57
2023/08/17 17:54:37;;;;;;;3.25;2.25;;;;;;;27.86;56.09;97621.41;18236763;32;20086;-57
2023/08/17 18:04:40;;;;;;;7.97;3.50;;;;;;;27.60;55.88;97617.69;18236266;32;20097;-56
2023/08/17 18:14:45;;;;;;;5.05;2.65;;;;;;;27.29;60.60;97630.06;18236294;32;20047;-57
2023/08/17 18:24:52;;;;;;;5.40;2.70;;;;;;;26.89;64.60;97638.00;18236197;32;20162;-57
2023/08/17 18:46:18;;;;;;;5.87;2.70;;;;;;;26.13;69.20;97661.16;18235094;32;20054;-57
2023/08/17 18:56:21;;;;;;;7.07;2.60;;;;;;;25.68;73.86;97652.53;18234546;32;20054;-56
2023/08/17 19:06:24;;;;;;;5.30;2.85;;;;;;;25.31;75.81;97656.66;18234612;32;20070;-57
2023/08/17 19:16:30;;;;;;;5.85;2.58;;;;;;;25.01;78.83;97681.38;18233035;32;20076;-57
2023/08/17 19:26:34;;;;;;;5.15;2.33;;;;;;;24.77;84.05;97688.03;18233300;32;20058;-57
2023/08/17 19:36:37;;;;;;;5.93;2.40;;;;;;;24.39;90.89;97681.25;18232634;32;20058;-56
2023/08/17 19:46:40;;;;;;;4.72;2.15;;;;;;;24.00;93.21;97688.28;18231042;32;20086;-57
2023/08/17 19:56:43;;;;;;;4.70;2.20;;;;;;;23.76;92.69;97686.53;18231399;32;20476;-55
2023/08/17 20:06:46;;;;;;;4.35;1.90;;;;;;;23.52;98.61;97687.50;18231455;32;20090;-57
2023/08/17 20:16:50;;;;;;;6.60;2.20;;;;;;;23.24;100.00;97685.63;18229476;32;20047;-57
2023/08/17 20:26:53;;;;;;;4.97;2.10;;;;;;;23.06;96.93;97676.00;18237500;32;20055;-57
2023/08/17 20:36:56;;;;;;;3.40;2.10;;;;;;;22.84;100.00;97673.47;18240941;32;20121;-56
2023/08/17 20:46:59;;;;;;;5.40;2.17;;;;;;;22.74;100.00;97678.69;18240401;32;20069;-57
2023/08/17 20:57:02;;;;;;;5.68;2.85;;;;;;;22.57;100.00;97688.84;18239313;32;20501;-56
2023/08/17 21:07:05;;;;;;;3.95;1.90;;;;;;;22.45;100.00;97691.63;18238498;32;20062;-56
2023/08/17 21:17:09;;;;;;;5.70;2.30;;;;;;;22.35;100.00;97698.41;18238984;32;20062;-56
2023/08/17 21:27:12;;;;;;;5.45;2.00;;;;;;;22.24;100.00;97708.28;18238663;32;20047;-57
2023/08/17 21:37:25;;;;;;;;;;;;;;;22.10;100.00;97703.12;18236469;32;20070;-57
2023/08/17 21:47:28;;;;;;;4.03;2.23;;;;;;;21.92;100.00;97708.84;18236003;32;19969;-57
2023/08/17 21:57:31;;;;;;;4.90;1.80;;;;;;;21.62;100.00;97706.31;18236507;32;20102;-57
2023/08/17 22:07:34;;;;;;;3.97;1.70;;;;;;;21.40;100.00;97693.75;18237254;32;20098;-57
2023/08/17 22:17:37;;;;;;;3.35;2.12;;;;;;;21.18;100.00;97713.44;18236235;32;20439;-57
2023/08/17 22:27:40;;;;;;;4.93;1.50;;;;;;;20.89;100.00;97704.97;18236127;32;20058;-56
2023/08/17 22:37:43;;;;;;;3.28;1.75;;;;;;;20.65;100.00;97713.84;18234519;32;20089;-57
2023/08/17 22:47:45;;;;;;;4.43;2.00;;;;;;;20.42;100.00;97710.62;18233874;32;20054;-57
2023/08/17 22:57:48;;;;;;;6.28;2.33;;;;;;;20.26;100.00;97713.16;18233055;32;20054;-56
2023/08/17 23:07:51;;;;;;;5.40;2.10;;;;;;;20.11;100.00;97700.81;18234213;32;20050;-56
2023/08/17 23:17:55;;;;;;;4.40;1.90;;;;;;;19.97;100.00;97704.59;18234126;32;20062;-57
2023/08/17 23:27:58;;;;;;;3.75;2.10;;;;;;;19.84;100.00;97707.59;18231924;32;20465;-57
2023/08/17 23:38:01;;;;;;;5.00;1.87;;;;;;;19.69;100.00;97697.94;18231751;32;20069;-57
2023/08/17 23:48:04;;;;;;;3.03;2.05;;;;;;;19.58;100.00;97709.28;18232162;32;20066;-57
2023/08/17 23:58:07;;;;;;;3.92;2.42;;;;;;;19.45;100.00;97715.78;18217247;32;20089;-57
